Time;durP1;ratioP1;P1;durP2;ratioP2;P2;SDS_P1;SDS_P2;PMS_P1;PMS_P2;Temp;Humidity;BMP_temperature;BMP_pressure;BME280_temperature;BME280_humidity;BME280_pressure;Samples;Min_cycle;Max_cycle;Signal;HPM_P1;HPM_P2
2022/01/16 00:05:03;;;;;;;4.20;1.50;;;;;;;-0.24;100.00;98729.56;4888963;29;20055;-60
2022/01/16 00:07:48;;;;;;;3.88;1.23;;;;;;;-0.24;100.00;98707.84;4888629;29;20051;-69
2022/01/16 00:10:33;;;;;;;2.72;1.30;;;;;;;-0.31;100.00;98708.72;4887526;29;20055;-57
2022/01/16 00:13:18;;;;;;;4.32;1.33;;;;;;;-0.41;100.00;98722.53;4886351;29;20417;-59
2022/01/16 00:16:03;;;;;;;3.95;1.08;;;;;;;-0.52;100.00;98706.84;4889842;29;20527;-63
2022/01/16 00:18:52;;;;;;;4.30;1.25;;;;;;;-0.53;100.00;98710.31;4878150;29;20131;-60
2022/01/16 00:21:48;;;;;;;2.53;1.20;;;;;;;-0.45;100.00;98702.53;4889928;29;20071;-63
2022/01/16 00:24:35;;;;;;;5.47;1.40;;;;;;;-0.46;100.00;98714.72;4889622;29;20284;-60
2022/01/16 00:27:20;;;;;;;2.50;1.08;;;;;;;-0.59;100.00;98715.47;4887453;29;20091;-59
2022/01/16 00:30:07;;;;;;;3.53;1.30;;;;;;;-0.70;100.00;98721.47;4890260;29;20051;-60
2022/01/16 00:32:59;;;;;;;4.63;1.33;;;;;;;-0.65;100.00;98724.97;4890083;29;20188;-58
2022/01/16 00:35:44;;;;;;;3.25;1.33;;;;;;;-0.63;100.00;98733.66;4885091;29;20056;-62
2022/01/16 00:38:30;;;;;;;2.83;1.10;;;;;;;-0.59;100.00;98743.25;4889636;29;20091;-60
2022/01/16 00:41:19;;;;;;;3.20;1.05;;;;;;;-0.55;100.00;98738.06;4873411;29;20216;-63
2022/01/16 00:44:05;;;;;;;2.70;1.10;;;;;;;-0.53;100.00;98735.47;4887257;29;20047;-68
2022/01/16 00:46:50;;;;;;;2.65;1.13;;;;;;;-0.46;100.00;98745.94;4889859;29;20120;-72
2022/01/16 00:49:38;;;;;;;4.68;1.27;;;;;;;-0.25;100.00;98751.28;4886787;29;20055;-59
2022/01/16 00:52:23;;;;;;;4.07;1.42;;;;;;;-0.07;100.00;98759.19;4888958;29;20125;-58
2022/01/16 00:55:09;;;;;;;3.38;1.08;;;;;;;-0.14;100.00;98765.25;4886161;29;20140;-61
2022/01/16 00:57:55;;;;;;;4.20;1.13;;;;;;;-0.05;100.00;98761.81;4876891;29;20071;-57
2022/01/16 01:00:40;;;;;;;3.47;1.33;;;;;;;-0.13;100.00;98763.50;4888391;29;20043;-60
2022/01/16 01:03:25;;;;;;;4.93;1.42;;;;;;;-0.23;100.00;98796.41;4887631;29;20136;-63
2022/01/16 01:06:11;;;;;;;3.38;1.40;;;;;;;-0.23;100.00;98799.03;4875664;29;20051;-57
2022/01/16 01:08:56;;;;;;;2.90;1.40;;;;;;;0.01;100.00;98795.72;4890141;29;20059;-60
2022/01/16 01:11:43;;;;;;;2.15;1.17;;;;;;;-0.02;100.00;98819.13;4889801;29;20055;-57
2022/01/16 01:14:41;;;;;;;2.65;1.10;;;;;;;-0.18;100.00;98809.47;4874292;29;20060;-61
2022/01/16 01:17:25;;;;;;;3.25;1.63;;;;;;;0.03;100.00;98829.59;4878095;29;20144;-60
2022/01/16 01:20:14;;;;;;;2.40;0.90;;;;;;;0.17;100.00;98835.75;4872258;29;20100;-61
2022/01/16 01:22:59;;;;;;;3.33;1.10;;;;;;;0.35;100.00;98841.09;4883018;29;20087;-54
2022/01/16 01:25:44;;;;;;;3.95;1.30;;;;;;;0.37;100.00;98845.44;4891949;29;20216;-61
2022/01/16 01:28:29;;;;;;;3.25;1.33;;;;;;;0.56;100.00;98846.38;4885804;29;20068;-57
2022/01/16 01:31:14;;;;;;;2.53;1.15;;;;;;;0.62;100.00;98846.41;4884853;29;20055;-62
2022/01/16 01:34:00;;;;;;;2.45;1.17;;;;;;;0.62;100.00;98856.84;4893072;29;20485;-60
2022/01/16 01:36:48;;;;;;;2.38;1.17;;;;;;;0.47;100.00;98849.81;4895856;29;20145;-58
2022/01/16 01:39:33;;;;;;;3.60;1.20;;;;;;;0.39;100.00;98863.69;4885058;29;20063;-62
2022/01/16 01:42:18;;;;;;;3.65;1.25;;;;;;;0.23;100.00;98864.47;4881856;29;20219;-62
2022/01/16 01:51:12;;;;;;;2.00;0.93;;;;;;;0.06;100.00;98866.97;4888091;29;20051;-57
2022/01/16 01:53:58;;;;;;;2.70;1.23;;;;;;;-0.01;100.00;98857.34;4886040;29;20453;-56
2022/01/16 01:56:42;;;;;;;2.55;1.27;;;;;;;0.05;100.00;98881.72;4891589;29;20081;-55
2022/01/16 01:59:29;;;;;;;2.70;1.00;;;;;;;0.12;100.00;98879.16;4878709;29;20047;-52
2022/01/16 02:02:14;;;;;;;3.03;1.27;;;;;;;0.12;100.00;98897.41;4886727;29;20051;-61
2022/01/16 02:04:59;;;;;;;2.50;1.10;;;;;;;0.08;100.00;98916.47;4873136;29;20560;-57
2022/01/16 02:07:44;;;;;;;2.35;1.10;;;;;;;0.21;100.00;98931.34;4890901;29;20048;-57
2022/01/16 02:10:29;;;;;;;3.20;1.35;;;;;;;0.12;100.00;98934.78;4876985;29;20104;-56
2022/01/16 02:13:23;;;;;;;3.95;1.60;;;;;;;0.11;100.00;98929.53;4875609;29;20052;-56
2022/01/16 02:31:28;;;;;;;3.63;1.05;;;;;;;-0.66;100.00;98832.53;4859932;29;20083;-62
2022/01/16 02:37:36;;;;;;;2.13;1.00;;;;;;;-0.89;100.00;98858.34;4879765;29;20055;-61
2022/01/16 02:40:25;;;;;;;2.20;1.20;;;;;;;-0.88;100.00;98895.63;4880913;29;20129;-56
2022/01/16 02:43:11;;;;;;;2.00;1.20;;;;;;;-0.82;100.00;98930.38;4873406;29;20066;-56
2022/01/16 02:49:01;;;;;;;1.75;0.90;;;;;;;-0.95;100.00;98855.66;4880205;29;20486;-58
2022/01/16 02:51:47;;;;;;;2.22;1.20;;;;;;;-0.98;100.00;98886.84;4881030;29;20112;-59
2022/01/16 02:54:37;;;;;;;2.63;1.20;;;;;;;-1.03;100.00;98939.69;4879102;29;20141;-64
2022/01/16 02:57:22;;;;;;;1.70;1.00;;;;;;;-1.18;100.00;98921.28;4868000;29;20199;-61
2022/01/16 03:00:08;;;;;;;1.80;0.90;;;;;;;-1.10;100.00;98881.50;4867658;29;20132;-63
2022/01/16 03:02:54;;;;;;;2.40;1.17;;;;;;;-1.11;100.00;98936.97;4865682;29;20090;-61
2022/01/16 03:05:39;;;;;;;2.45;1.17;;;;;;;-1.16;100.00;98935.16;4874209;29;20059;-58
2022/01/16 03:08:24;;;;;;;2.00;1.00;;;;;;;-1.26;100.00;98939.38;4869596;29;20144;-66
2022/01/16 03:11:23;;;;;;;1.98;0.95;;;;;;;-1.21;100.00;98963.72;4888540;29;20052;-61
2022/01/16 03:14:12;;;;;;;2.92;1.00;;;;;;;-1.19;100.00;98958.56;4884985;29;20051;-57
2022/01/16 03:17:02;;;;;;;4.43;1.00;;;;;;;-1.29;100.00;98949.75;4887448;29;20478;-60
2022/01/16 03:23:01;;;;;;;7.18;1.25;;;;;;;-1.40;100.00;98956.53;4887615;29;20122;-61
2022/01/16 03:25:46;;;;;;;3.13;1.45;;;;;;;-1.43;100.00;98971.19;4881598;29;20059;-57
2022/01/16 03:28:31;;;;;;;3.85;1.77;;;;;;;-1.49;100.00;98977.19;4889266;29;20123;-58
2022/01/16 03:31:20;;;;;;;2.47;1.20;;;;;;;-1.54;100.00;98975.38;4874558;29;20055;-56
2022/01/16 03:34:06;;;;;;;3.47;1.67;;;;;;;-1.54;100.00;98977.97;4886063;29;20075;-63
2022/01/16 03:36:51;;;;;;;4.93;1.42;;;;;;;-1.57;100.00;98958.03;4888635;29;20553;-56
2022/01/16 03:39:38;;;;;;;3.60;1.13;;;;;;;-1.57;100.00;98990.94;4884523;29;20121;-56
2022/01/16 03:42:27;;;;;;;3.08;1.20;;;;;;;-1.59;100.00;99008.19;4889786;29;20576;-58
2022/01/16 03:45:14;;;;;;;4.53;1.50;;;;;;;-1.57;100.00;99004.81;4888890;29;20421;-54
2022/01/16 03:47:59;;;;;;;2.10;1.02;;;;;;;-1.53;100.00;99011.78;4887717;29;20055;-68
2022/01/16 03:50:45;;;;;;;3.40;1.23;;;;;;;-1.54;100.00;99016.97;4876153;29;20051;-66
2022/01/16 03:53:30;;;;;;;3.45;1.50;;;;;;;-1.57;100.00;99015.19;4887103;29;20051;-62
2022/01/16 03:56:17;;;;;;;2.55;1.50;;;;;;;-1.66;100.00;99024.56;4874918;29;20047;-56
2022/01/16 03:59:02;;;;;;;;;;;;;;;-1.62;100.00;99035.00;4888869;29;20406;-58
2022/01/16 04:01:48;;;;;;;3.03;1.00;;;;;;;-1.68;100.00;99034.06;4883175;29;19978;-58
2022/01/16 04:04:34;;;;;;;2.22;1.10;;;;;;;-1.63;100.00;99035.00;4887685;29;20055;-57
2022/01/16 04:07:25;;;;;;;4.72;1.33;;;;;;;-1.55;100.00;99039.47;4885190;29;20478;-63
2022/01/16 04:10:11;;;;;;;2.78;0.90;;;;;;;-1.50;100.00;99035.22;4887627;29;20067;-53
2022/01/16 04:12:56;;;;;;;4.72;1.27;;;;;;;-1.55;100.00;99038.59;4886064;29;20120;-55
2022/01/16 04:15:42;;;;;;;1.23;0.80;;;;;;;-1.61;100.00;99038.50;4875911;29;20059;-55
2022/01/16 04:18:26;;;;;;;1.90;1.00;;;;;;;-1.72;100.00;99051.31;4888784;29;20056;-60
2022/01/16 04:21:11;;;;;;;4.63;1.60;;;;;;;-1.74;100.00;99042.63;4884355;29;20119;-63
2022/01/16 04:23:58;;;;;;;2.05;0.90;;;;;;;-1.70;100.00;99062.59;4887559;29;20425;-67
2022/01/16 04:26:43;;;;;;;2.38;1.10;;;;;;;-1.68;100.00;99068.72;4887691;29;20076;-59
2022/01/16 04:29:29;;;;;;;2.00;0.82;;;;;;;-1.76;100.00;99051.25;4874638;29;20060;-56
2022/01/16 04:32:15;;;;;;;4.75;2.95;;;;;;;-1.65;100.00;99068.78;4888581;29;20857;-57
2022/01/16 04:35:02;;;;;;;2.35;1.00;;;;;;;-1.58;100.00;99069.75;4885130;29;20470;-73
2022/01/16 04:37:49;;;;;;;2.08;0.80;;;;;;;-1.34;100.00;99070.97;4874196;29;20055;-57
2022/01/16 04:40:43;;;;;;;4.88;0.80;;;;;;;-1.16;100.00;99094.69;4859660;29;20064;-58
2022/01/16 04:46:35;;;;;;;1.58;0.77;;;;;;;-0.84;100.00;99087.31;4889879;29;20123;-55
2022/01/16 04:49:20;;;;;;;2.10;1.00;;;;;;;-0.73;100.00;99091.84;4874117;29;20112;-54
2022/01/16 04:52:05;;;;;;;3.33;1.23;;;;;;;-0.76;100.00;99084.00;4901560;29;20548;-60
2022/01/16 04:54:50;;;;;;;2.70;0.85;;;;;;;-0.74;100.00;99079.66;4875327;29;20103;-55
2022/01/16 04:57:35;;;;;;;3.00;1.15;;;;;;;-0.68;100.00;99099.69;4871433;29;20151;-60
2022/01/16 05:00:20;;;;;;;4.28;1.00;;;;;;;-0.83;100.00;99091.69;4884700;29;20056;-57
2022/01/16 05:03:05;;;;;;;1.77;1.05;;;;;;;-0.85;100.00;99106.41;4882375;29;20055;-55
2022/01/16 05:05:50;;;;;;;2.90;1.00;;;;;;;-0.80;100.00;99110.81;4885740;29;20534;-55
2022/01/16 05:08:35;;;;;;;1.90;0.90;;;;;;;-0.76;100.00;99104.81;4887911;29;20102;-56
2022/01/16 05:11:26;;;;;;;2.75;0.90;;;;;;;-0.77;100.00;99128.19;4888293;29;20063;-57
2022/01/16 05:17:14;;;;;;;3.55;1.20;;;;;;;-0.54;100.00;99127.69;4890025;29;20060;-56
2022/01/16 05:19:59;;;;;;;2.45;1.10;;;;;;;-0.73;100.00;99128.28;4888134;29;20440;-60
2022/01/16 05:22:43;;;;;;;4.18;1.23;;;;;;;-0.76;100.00;99138.63;4884892;29;20056;-53
2022/01/16 05:25:28;;;;;;;2.17;1.00;;;;;;;-0.51;100.00;99142.47;4876133;29;20528;-55
2022/01/16 05:28:12;;;;;;;2.35;1.10;;;;;;;-0.53;100.00;99124.22;4875285;29;20165;-54
2022/01/16 05:30:58;;;;;;;2.92;1.00;;;;;;;-0.50;100.00;99142.47;4863253;29;20839;-58
2022/01/16 05:33:43;;;;;;;2.13;1.15;;;;;;;-0.49;100.00;99140.72;4887985;29;20064;-56
2022/01/16 05:36:27;;;;;;;2.00;0.90;;;;;;;-0.54;100.00;99143.28;4873334;29;20141;-54
2022/01/16 05:39:12;;;;;;;4.05;1.10;;;;;;;-0.55;100.00;99156.28;4871543;29;20406;-57
2022/01/16 05:41:58;;;;;;;2.60;1.20;;;;;;;-0.37;100.00;99169.53;4889593;29;20222;-55
2022/01/16 05:44:43;;;;;;;2.95;1.10;;;;;;;-0.44;100.00;99162.50;4880519;29;20127;-53
2022/01/16 05:47:27;;;;;;;2.42;1.10;;;;;;;-0.27;100.00;99168.81;4882131;29;20051;-55
2022/01/16 05:50:13;;;;;;;3.80;1.13;;;;;;;-0.12;100.00;99172.47;4879171;29;20067;-55
2022/01/16 05:53:03;;;;;;;1.60;0.63;;;;;;;-0.30;100.00;99173.97;4904909;29;20580;-58
2022/01/16 05:55:48;;;;;;;1.65;0.80;;;;;;;-0.44;100.00;99185.91;4878859;29;20409;-58
2022/01/16 05:58:33;;;;;;;2.10;0.88;;;;;;;-0.55;100.00;99179.72;4894107;29;20116;-54
2022/01/16 06:01:17;;;;;;;2.63;1.42;;;;;;;-0.29;100.00;99197.44;4882573;29;20096;-52
2022/01/16 06:04:03;;;;;;;3.03;1.33;;;;;;;-0.34;100.00;99187.81;4859537;29;20097;-51
2022/01/16 06:06:48;;;;;;;2.30;1.20;;;;;;;-0.33;100.00;99185.22;4889870;29;20082;-57
2022/01/16 06:09:34;;;;;;;3.58;1.20;;;;;;;-0.43;100.00;99204.19;4881032;29;20059;-53
2022/01/16 06:12:19;;;;;;;;;;;;;;;-0.41;100.00;99199.88;4882774;29;20075;-60
2022/01/16 06:15:07;;;;;;;3.03;0.98;;;;;;;-0.43;100.00;99192.91;4879237;29;20142;-63
2022/01/16 06:21:15;;;;;;;2.40;0.93;;;;;;;-0.45;100.00;99200.69;4879109;29;20594;-63
2022/01/16 06:24:03;;;;;;;3.28;1.00;;;;;;;-0.30;100.00;99206.13;4882233;29;20519;-59
2022/01/16 06:26:49;;;;;;;3.03;1.23;;;;;;;-0.32;100.00;99194.78;4891026;29;20048;-63
2022/01/16 06:29:33;;;;;;;1.83;1.10;;;;;;;-0.40;100.00;99190.31;4881288;29;20086;-60
2022/01/16 06:32:18;;;;;;;1.13;0.63;;;;;;;-0.59;100.00;99180.53;4889637;29;20100;-61
2022/01/16 06:35:04;;;;;;;;;;;;;;;-0.56;100.00;99181.44;4898648;29;20487;-62
2022/01/16 06:37:50;;;;;;;1.35;0.57;;;;;;;-0.70;100.00;99200.31;4881738;29;20359;-57
2022/01/16 06:40:34;;;;;;;1.20;0.60;;;;;;;-0.45;100.00;99198.09;4882567;29;20104;-58
2022/01/16 06:43:19;;;;;;;;;;;;;;;-0.39;100.00;99208.56;4894040;29;20115;-62
2022/01/16 06:46:04;;;;;;;1.80;0.63;;;;;;;-0.41;100.00;99201.59;4895532;29;20263;-64
2022/01/16 06:48:49;;;;;;;;;;;;;;;-0.32;100.00;99189.56;4894085;29;20444;-66
2022/01/16 06:54:01;;;;;;;2.20;0.60;;;;;;;-0.09;100.00;99210.72;4889767;29;20053;-55
2022/01/16 06:56:46;;;;;;;1.20;0.60;;;;;;;-0.13;100.00;99220.22;4886462;29;20060;-57
2022/01/16 06:59:33;;;;;;;1.65;0.63;;;;;;;-0.22;100.00;99222.72;4872911;29;20175;-56
2022/01/16 07:02:19;;;;;;;1.48;0.68;;;;;;;-0.04;100.00;99220.34;4874978;29;20251;-63
2022/01/16 07:05:04;;;;;;;0.88;0.57;;;;;;;0.08;100.00;99218.75;4873915;29;20124;-69
2022/01/16 07:07:49;;;;;;;1.67;0.70;;;;;;;0.19;100.00;99235.41;4885355;29;20055;-59
2022/01/16 07:10:34;;;;;;;1.17;0.55;;;;;;;0.08;100.00;99237.00;4893753;29;20111;-59
2022/01/16 07:13:21;;;;;;;2.17;0.70;;;;;;;-0.11;100.00;99230.69;4892467;29;20520;-67
2022/01/16 07:16:06;;;;;;;2.35;0.60;;;;;;;-0.06;100.00;99231.59;4893300;29;20116;-61
2022/01/16 07:18:50;;;;;;;0.75;0.35;;;;;;;-0.25;100.00;99230.50;4891125;29;20051;-61
2022/01/16 07:21:35;;;;;;;1.75;0.50;;;;;;;-0.41;100.00;99254.56;4893063;29;20060;-61
2022/01/16 07:24:19;;;;;;;1.63;0.60;;;;;;;-0.29;100.00;99251.25;4899760;29;20051;-57
2022/01/16 07:27:04;;;;;;;0.73;0.40;;;;;;;-0.15;100.00;99263.59;4892357;29;20099;-58
2022/01/16 07:29:49;;;;;;;1.45;0.47;;;;;;;-0.44;100.00;99243.22;4893421;29;20086;-67
2022/01/16 07:32:34;;;;;;;0.52;0.30;;;;;;;-0.48;100.00;99260.53;4877456;29;20525;-69
2022/01/16 07:35:20;;;;;;;1.20;0.30;;;;;;;-0.35;100.00;99256.38;4879131;29;20059;-58
2022/01/16 07:38:07;;;;;;;1.48;0.35;;;;;;;-0.27;100.00;99255.63;4884033;29;20071;-57
2022/01/16 07:40:52;;;;;;;1.75;0.50;;;;;;;-0.23;100.00;99253.94;4872299;29;20064;-59
2022/01/16 07:43:37;;;;;;;2.35;0.65;;;;;;;0.00;100.00;99266.44;4875211;29;20869;-60
2022/01/16 07:46:22;;;;;;;1.15;0.38;;;;;;;0.05;100.00;99262.16;4873322;29;20105;-61
2022/01/16 07:49:07;;;;;;;1.27;0.57;;;;;;;0.10;100.00;99267.44;4890344;29;20127;-60
2022/01/16 07:51:52;;;;;;;1.20;0.60;;;;;;;0.03;100.00;99262.13;4876385;29;20051;-64
2022/01/16 07:54:37;;;;;;;1.23;0.50;;;;;;;0.03;100.00;99256.06;4881762;29;20107;-58
2022/01/16 07:57:21;;;;;;;0.93;0.40;;;;;;;-0.09;100.00;99250.69;4887019;29;20063;-58
2022/01/16 08:00:09;;;;;;;1.30;0.50;;;;;;;-0.05;100.00;99256.78;4872616;29;20075;-65
2022/01/16 08:02:57;;;;;;;1.55;0.60;;;;;;;0.19;100.00;99249.28;4875934;29;20120;-58
2022/01/16 08:05:42;;;;;;;1.15;0.52;;;;;;;0.21;100.00;99260.63;4885122;29;20127;-61
2022/01/16 08:08:28;;;;;;;0.57;0.40;;;;;;;0.25;100.00;99266.75;4881616;29;20062;-59
2022/01/16 08:11:13;;;;;;;2.17;0.63;;;;;;;0.01;100.00;99272.53;4883916;29;20063;-58
2022/01/16 08:13:58;;;;;;;1.55;0.60;;;;;;;0.37;100.00;99273.00;4871942;29;20056;-57
2022/01/16 08:16:43;;;;;;;2.00;0.70;;;;;;;0.62;100.00;99281.94;4876805;29;20063;-57
2022/01/16 08:19:28;;;;;;;3.15;0.45;;;;;;;0.39;100.00;99260.84;4893397;29;20047;-58
2022/01/16 08:22:13;;;;;;;2.13;0.60;;;;;;;0.36;100.00;99279.06;4888134;29;20567;-56
2022/01/16 08:24:59;;;;;;;4.05;0.70;;;;;;;0.40;100.00;99285.19;4869696;29;20056;-66
2022/01/16 08:27:45;;;;;;;2.53;0.88;;;;;;;0.44;100.00;99289.59;4883741;29;20570;-65
2022/01/16 08:30:31;;;;;;;2.15;0.80;;;;;;;0.30;100.00;99281.59;4875833;29;20051;-62
2022/01/16 08:33:17;;;;;;;1.45;0.50;;;;;;;0.29;100.00;99281.56;4888743;29;20055;-61
2022/01/16 08:36:02;;;;;;;0.55;0.40;;;;;;;0.09;100.00;99281.31;4882910;29;20173;-54
2022/01/16 08:38:48;;;;;;;1.52;0.60;;;;;;;-0.09;100.00;99276.72;4883715;29;20047;-61
2022/01/16 08:41:33;;;;;;;1.70;0.60;;;;;;;-0.10;100.00;99282.81;4891954;29;20056;-58
2022/01/16 08:44:19;;;;;;;1.88;0.50;;;;;;;1.18;100.00;99266.00;4875703;29;20083;-57
2022/01/16 08:47:04;;;;;;;0.98;0.40;;;;;;;1.80;100.00;99267.38;4879906;29;20076;-59
2022/01/16 08:49:50;;;;;;;1.40;0.47;;;;;;;1.31;100.00;99267.91;4878958;29;20364;-59
2022/01/16 08:52:39;;;;;;;1.02;0.55;;;;;;;1.02;100.00;99278.94;4878594;29;20051;-56
2022/01/16 08:55:27;;;;;;;1.75;0.52;;;;;;;0.75;100.00;99297.75;4888173;29;20059;-55
2022/01/16 08:58:12;;;;;;;2.20;0.60;;;;;;;0.87;100.00;99299.66;4870289;29;20075;-53
2022/01/16 09:00:56;;;;;;;1.95;0.60;;;;;;;0.95;100.00;99303.22;4883611;29;20075;-57
2022/01/16 09:03:41;;;;;;;1.55;0.80;;;;;;;1.13;100.00;99308.59;4886435;29;20056;-59
2022/01/16 09:06:27;;;;;;;3.30;0.80;;;;;;;0.98;100.00;99292.81;4889800;29;20056;-58
2022/01/16 09:09:13;;;;;;;1.20;0.70;;;;;;;0.95;100.00;99300.59;4872752;29;20598;-61
2022/01/16 09:11:59;;;;;;;;;;;;;;;0.95;100.00;99300.59;4885235;29;20055;-64
2022/01/16 09:14:44;;;;;;;;;;;;;;;0.90;100.00;99303.16;4885385;29;19998;-58
2022/01/16 09:17:28;;;;;;;1.88;0.70;;;;;;;1.14;100.00;99300.78;4886695;29;20702;-58
2022/01/16 09:20:14;;;;;;;2.70;0.63;;;;;;;0.88;100.00;99289.22;4887140;29;20144;-60
2022/01/16 09:23:00;;;;;;;1.73;0.65;;;;;;;1.22;100.00;99313.94;4889082;29;20493;-60
2022/01/16 09:25:46;;;;;;;0.82;0.50;;;;;;;1.27;100.00;99307.88;4873691;29;20055;-58
2022/01/16 09:28:31;;;;;;;1.00;0.60;;;;;;;1.02;100.00;99302.44;4887759;29;20544;-59
2022/01/16 09:31:15;;;;;;;1.23;0.68;;;;;;;0.86;100.00;99308.34;4876310;29;20055;-64
2022/01/16 09:34:00;;;;;;;1.50;0.57;;;;;;;0.64;100.00;99315.06;4891141;29;20409;-53
2022/01/16 09:36:46;;;;;;;1.30;0.60;;;;;;;0.92;100.00;99298.84;4873675;29;20108;-60
2022/01/16 09:39:31;;;;;;;1.33;0.70;;;;;;;0.74;100.00;99298.63;4892251;29;20075;-58
2022/01/16 09:42:17;;;;;;;1.70;0.80;;;;;;;0.74;100.00;99306.47;4892268;29;20056;-61
2022/01/16 09:45:02;;;;;;;;;;;;;;;0.83;100.00;99283.06;4891587;29;20108;-59
2022/01/16 09:47:48;;;;;;;1.55;0.73;;;;;;;0.92;100.00;99296.22;4889699;29;19930;-60
2022/01/16 09:50:35;;;;;;;3.83;0.80;;;;;;;1.02;100.00;99291.97;4885543;29;20497;-65
2022/01/16 09:53:22;;;;;;;2.70;1.15;;;;;;;1.00;100.00;99288.47;4876555;29;20096;-58
2022/01/16 09:56:07;;;;;;;2.17;1.10;;;;;;;0.78;100.00;99289.13;4890689;29;21036;-57
2022/01/16 09:58:52;;;;;;;2.25;1.17;;;;;;;0.98;100.00;99283.22;4888785;29;20064;-55
2022/01/16 10:01:38;;;;;;;1.80;1.02;;;;;;;0.91;100.00;99296.22;4891297;29;20140;-61
2022/01/16 10:04:32;;;;;;;1.67;0.77;;;;;;;0.90;100.00;99289.25;4889425;29;20116;-63
2022/01/16 10:07:19;;;;;;;1.67;0.73;;;;;;;0.80;100.00;99297.81;4888792;29;20052;-59
2022/01/16 10:10:15;;;;;;;1.83;0.80;;;;;;;0.73;100.00;99290.78;4889120;29;20886;-62
2022/01/16 10:13:07;;;;;;;1.08;0.50;;;;;;;1.45;100.00;99281.03;4887109;29;20063;-60
2022/01/16 10:15:54;;;;;;;1.67;0.63;;;;;;;1.37;100.00;99261.81;4892330;29;20523;-58
2022/01/16 10:18:41;;;;;;;1.10;0.60;;;;;;;2.19;100.00;99283.31;4886557;29;20444;-60
2022/01/16 10:21:38;;;;;;;1.20;0.70;;;;;;;2.96;100.00;99276.59;4889805;29;20047;-59
2022/01/16 10:24:30;;;;;;;0.73;0.47;;;;;;;3.69;100.00;99272.28;4892569;29;20067;-59
2022/01/16 10:27:18;;;;;;;0.82;0.50;;;;;;;4.78;100.00;99271.06;4889276;29;20100;-64
2022/01/16 10:30:07;;;;;;;0.70;0.40;;;;;;;3.91;100.00;99255.63;4860508;29;20123;-67
2022/01/16 10:32:52;;;;;;;2.15;0.98;;;;;;;3.22;100.00;99255.69;4883139;29;20100;-59
2022/01/16 10:35:39;;;;;;;0.70;0.50;;;;;;;2.64;100.00;99262.56;4890819;29;20063;-61
2022/01/16 10:38:29;;;;;;;1.20;0.75;;;;;;;3.57;100.00;99269.69;4882831;29;20152;-60
2022/01/16 10:41:14;;;;;;;1.17;0.60;;;;;;;3.67;100.00;99258.28;4861677;29;20059;-60
2022/01/16 10:44:00;;;;;;;1.73;0.70;;;;;;;4.76;100.00;99262.34;4863107;29;20422;-64
2022/01/16 10:46:45;;;;;;;1.25;0.70;;;;;;;5.74;97.94;99267.75;4898336;29;20047;-64
2022/01/16 10:49:31;;;;;;;1.52;0.80;;;;;;;6.57;88.57;99262.50;4887908;29;20474;-61
2022/01/16 10:52:16;;;;;;;2.00;0.80;;;;;;;5.63;87.64;99256.47;4889805;29;20172;-62
2022/01/16 10:55:08;;;;;;;2.20;0.90;;;;;;;4.67;94.18;99263.25;4891773;29;20780;-59
2022/01/16 10:58:07;;;;;;;1.70;0.80;;;;;;;3.64;100.00;99226.88;4876780;29;20433;-65
2022/01/16 11:01:00;;;;;;;1.15;0.80;;;;;;;2.68;100.00;99259.06;4891219;29;20048;-59
2022/01/16 11:03:45;;;;;;;1.30;0.90;;;;;;;2.72;100.00;99271.31;4875759;29;20098;-57
2022/01/16 11:06:31;;;;;;;1.63;0.90;;;;;;;2.30;100.00;99249.34;4889981;29;20552;-59
2022/01/16 11:09:28;;;;;;;1.23;0.77;;;;;;;2.10;100.00;99257.09;4871672;29;20064;-58
2022/01/16 11:12:17;;;;;;;1.10;0.93;;;;;;;2.00;100.00;99263.16;4891825;29;20056;-60
2022/01/16 11:15:04;;;;;;;2.67;1.00;;;;;;;2.25;100.00;99262.41;4875610;29;20079;-65
2022/01/16 11:17:53;;;;;;;1.48;0.90;;;;;;;2.18;100.00;99278.91;4886781;29;20079;-62
2022/01/16 11:20:45;;;;;;;3.33;1.25;;;;;;;2.23;100.00;99278.94;4891221;29;20112;-58
2022/01/16 11:23:46;;;;;;;1.60;1.00;;;;;;;2.10;100.00;99285.00;4886622;29;20060;-64
2022/01/16 11:26:31;;;;;;;2.67;1.23;;;;;;;1.96;100.00;99291.88;4875914;29;20064;-56
2022/01/16 11:29:16;;;;;;;2.15;1.23;;;;;;;2.04;100.00;99293.66;4890502;29;20433;-59
2022/01/16 11:32:06;;;;;;;1.88;1.15;;;;;;;2.26;100.00;99295.53;4886320;29;20052;-62
2022/01/16 11:34:55;;;;;;;2.78;1.30;;;;;;;2.24;100.00;99289.41;4890001;29;20067;-58
2022/01/16 11:37:40;;;;;;;2.03;1.33;;;;;;;2.23;100.00;99295.53;4890262;29;20104;-57
2022/01/16 11:40:44;;;;;;;2.65;1.40;;;;;;;1.97;100.00;99302.34;4890564;29;20063;-59
2022/01/16 11:43:34;;;;;;;4.50;1.60;;;;;;;2.06;100.00;99301.53;4885690;29;20060;-60
2022/01/16 11:46:22;;;;;;;3.35;2.00;;;;;;;1.94;100.00;99311.91;4890517;29;20239;-55
2022/01/16 11:49:17;;;;;;;4.03;1.58;;;;;;;1.79;100.00;99310.06;4888745;29;20139;-68
2022/01/16 11:52:11;;;;;;;2.83;1.67;;;;;;;1.72;100.00;99310.00;4875269;29;20055;-58
2022/01/16 11:55:08;;;;;;;2.40;1.52;;;;;;;1.86;100.00;99301.38;4875993;29;20544;-58
2022/01/16 11:57:57;;;;;;;3.45;1.77;;;;;;;1.73;100.00;99298.66;4886000;29;20087;-62
2022/01/16 12:00:48;;;;;;;4.07;1.40;;;;;;;1.50;100.00;99295.88;4886996;29;20075;-64
2022/01/16 12:03:36;;;;;;;3.15;1.48;;;;;;;1.63;100.00;99305.59;4889303;29;20063;-65
2022/01/16 12:06:33;;;;;;;4.38;1.80;;;;;;;1.70;100.00;99301.28;4885019;29;20758;-65
2022/01/16 12:12:21;;;;;;;3.83;1.30;;;;;;;1.66;100.00;99295.13;4885939;29;20056;-60
2022/01/16 12:15:18;;;;;;;2.83;1.33;;;;;;;1.32;100.00;99280.09;4882960;29;20128;-63
2022/01/16 12:18:04;;;;;;;2.72;1.27;;;;;;;1.36;100.00;99288.81;4878335;29;20121;-66
2022/01/16 12:20:48;;;;;;;2.17;1.17;;;;;;;1.41;100.00;99290.59;4880836;29;20048;-60
2022/01/16 12:23:47;;;;;;;3.22;1.45;;;;;;;1.43;100.00;99288.00;4885756;29;20064;-71
2022/01/16 12:26:34;;;;;;;4.90;1.67;;;;;;;1.23;100.00;99287.81;4888746;29;20091;-71
2022/01/16 12:29:19;;;;;;;1.80;1.10;;;;;;;0.98;100.00;99264.09;4887996;29;20059;-64
2022/01/16 12:32:06;;;;;;;2.00;1.10;;;;;;;0.85;100.00;99275.25;4871476;29;20143;-67
2022/01/16 12:34:52;;;;;;;1.90;0.90;;;;;;;0.99;100.00;99269.31;4888269;29;20206;-66
2022/01/16 12:37:43;;;;;;;2.97;1.00;;;;;;;1.01;100.00;99259.78;4887678;29;20512;-68
2022/01/16 12:40:28;;;;;;;2.17;1.20;;;;;;;1.29;100.00;99263.50;4850200;29;20424;-77
2022/01/16 12:43:24;;;;;;;4.05;1.00;;;;;;;1.28;100.00;99259.13;4875761;29;20079;-64
2022/01/16 12:46:13;;;;;;;3.42;1.02;;;;;;;1.29;100.00;99253.03;4871946;29;20421;-63
2022/01/16 12:49:02;;;;;;;3.35;1.50;;;;;;;1.32;100.00;99250.47;4887621;29;20135;-61
2022/01/16 12:51:51;;;;;;;1.98;1.20;;;;;;;1.37;100.00;99256.59;4886398;29;20160;-57
2022/01/16 12:54:36;;;;;;;3.00;1.30;;;;;;;1.19;100.00;99249.47;4885637;29;20071;-56
2022/01/16 12:57:28;;;;;;;3.67;1.45;;;;;;;1.36;100.00;99249.63;4889261;29;20064;-57
2022/01/16 13:00:14;;;;;;;6.45;1.98;;;;;;;1.39;100.00;99253.16;4880637;29;20051;-58
2022/01/16 13:03:03;;;;;;;5.75;1.85;;;;;;;1.22;100.00;99246.06;4881849;29;20051;-63
2022/01/16 13:05:49;;;;;;;5.97;2.25;;;;;;;1.32;100.00;99248.75;4889637;29;20123;-55
2022/01/16 13:09:03;;;;;;;5.07;2.22;;;;;;;1.33;100.00;99240.03;4885315;29;20067;-54
2022/01/16 13:11:51;;;;;;;5.47;2.08;;;;;;;1.25;100.00;99244.31;4888101;29;20429;-56
2022/01/16 13:14:38;;;;;;;3.75;1.60;;;;;;;1.14;100.00;99242.50;4886795;29;20651;-58
2022/01/16 13:17:24;;;;;;;3.08;1.58;;;;;;;0.88;100.00;99237.03;4873470;29;20114;-60
2022/01/16 13:20:14;;;;;;;4.78;1.75;;;;;;;0.87;100.00;99237.03;4883229;29;20048;-61
2022/01/16 13:23:01;;;;;;;4.03;1.75;;;;;;;0.68;100.00;99222.94;4885780;29;20179;-68
2022/01/16 13:25:55;;;;;;;4.18;1.65;;;;;;;0.72;100.00;99231.66;4885915;29;20181;-69
2022/01/16 13:28:40;;;;;;;4.60;1.52;;;;;;;0.70;100.00;99230.78;4884403;29;20134;-67
2022/01/16 13:31:26;;;;;;;6.40;1.90;;;;;;;0.79;100.00;99228.25;4887385;29;20416;-58
2022/01/16 13:34:15;;;;;;;4.15;1.73;;;;;;;0.80;100.00;99236.09;4873807;29;20147;-60
2022/01/16 13:37:03;;;;;;;3.30;1.88;;;;;;;0.65;100.00;99235.94;4874293;29;20066;-70
2022/01/16 13:39:59;;;;;;;5.47;2.33;;;;;;;0.56;100.00;99229.75;4884641;29;20123;-62
2022/01/16 13:45:45;;;;;;;5.10;1.90;;;;;;;0.46;100.00;99231.38;4885662;29;20063;-64
2022/01/16 13:48:30;;;;;;;4.82;2.65;;;;;;;0.41;100.00;99234.78;4885772;29;20580;-64
2022/01/16 13:51:21;;;;;;;7.75;2.83;;;;;;;0.40;100.00;99238.25;4884622;29;20052;-59
2022/01/16 13:54:13;;;;;;;8.70;4.43;;;;;;;0.16;100.00;99220.59;4886783;29;20060;-61
2022/01/16 13:57:01;;;;;;;9.63;4.00;;;;;;;0.10;100.00;99220.53;4884224;29;20108;-58